Home > Products > Valid Products > TAF

000
FTUS43 KEAX 301100 CCA
TAFSTJ
TAF COR
KSTJ 301135Z 3012/3112 VRB03KT 2SM BR SKC
      TEMPO 3012/3013 1SM BR SCT008
     FM301330 29006KT P6SM SKC=



000
FTUS43 KEAX 301100
TAFMKC
TAF
KMKC 301122Z 3012/3112 29005KT P6SM SKC=



000
FTUS43 KEAX 301100
TAFMCI
TAF
KMCI 301122Z 3012/3112 29006KT P6SM SKC=



000
FTUS43 KEAX 301100
TAFSTJ
TAF
KSTJ 301122Z 3012/3112 29006KT P6SM SKC=



000
FTUS43 KEAX 301000 AAA
TAFSTJ
TAF AMD
KSTJ 301003Z 3010/3106 VRB04KT P6SM SKC
      TEMPO 3011/3013 2SM BR
     FM301300 29006KT P6SM SCT200=



000
FTUS43 KEAX 300500
TAFMKC
TAF
KMKC 300520Z 3006/3106 33003KT P6SM BKN060 OVC080
     FM301000 VRB05KT 4SM BR FEW001
     FM301300 29006KT P6SM SCT200=



000
FTUS43 KEAX 300500
TAFSTJ
TAF
KSTJ 300520Z 3006/3106 24005KT P6SM SCT060 BKN080
     FM301000 VRB05KT 1SM BR BKN008
     FM301300 29006KT P6SM SCT200=



000
FTUS43 KEAX 300500
TAFMCI
TAF
KMCI 300520Z 3006/3106 17009KT P6SM BKN050 OVC070
     FM301000 VRB05KT 4SM BR FEW001
     FM301300 29006KT P6SM SCT200=



000
FTUS43 KEAX 300300 AAB
TAFMCI
TAF AMD
KMCI 300316Z 3003/3024 20004KT P6SM VCTS BKN060CB BKN080 OVC110
     FM300500 21005KT P6SM BKN060
     FM301000 VRB05KT 4SM BR FEW001
     FM301400 29006KT P6SM SCT200=



000
FTUS43 KEAX 300100 AAA
TAFMCI
TAF AMD
KMCI 300147Z 3002/3024 17009KT P6SM VCTS FEW040CB FEW150 SCT250
     FM300300 VRB05KT P6SM SCT060
     FM301000 VRB02KT 4SM BR FEW001
     FM301400 29006KT P6SM SCT200=



000
FTUS43 KEAX 300000 AAA
TAFSTJ
TAF AMD
KSTJ 300010Z 3000/3024 19006KT P6SM VCTS FEW045CB
     FM300300 VRB05KT P6SM SCT060
     FM300900 VRB02KT 1SM BR BKN008
     FM301300 29006KT P6SM SCT200=



000
FTUS43 KEAX 292300
TAFMCI
TAF
KMCI 292321Z 3000/3024 17009KT P6SM VCTS FEW040CB FEW150 SCT250
      TEMPO 3000/3002 2SM TSRA BKN050CB
     FM300300 VRB05KT P6SM SCT060
     FM301000 VRB02KT 4SM BR FEW001
     FM301400 29006KT P6SM SCT200=



000
FTUS43 KEAX 292300
TAFMKC
TAF
KMKC 292321Z 3000/3024 16008KT P6SM VCTS FEW050CB
     FM300300 VRB05KT P6SM SCT060
     FM301000 VRB02KT 4SM BR FEW001
     FM301400 29006KT P6SM SCT200=



000
FTUS43 KEAX 292300
TAFSTJ
TAF
KSTJ 292321Z 3000/3024 19006KT P6SM VCTS FEW045CB
      TEMPO 3000/3002 2SM TSRA BKN050CB
     FM300300 VRB05KT P6SM SCT060
     FM300900 VRB02KT 1SM BR BKN008
     FM301300 29006KT P6SM SCT200=



000
FTUS43 KEAX 292200 CCA
TAFSTJ
TAF COR
KSTJ 292226Z 2919/3018 20009KT P6SM VCTS SCT040CB BKN060
     FM300300 VRB05KT P6SM SCT060
     FM300900 VRB02KT 1SM BR BKN008
     FM301300 29006KT P6SM SCT200=



000
FTUS43 KEAX 292200 AAB
TAFMKC
TAF AMD
KMKC 292225Z 2922/3018 23007KT P6SM VCTS SCT040CB BKN060
     FM300300 VRB05KT P6SM SCT060
     FM301000 VRB02KT 4SM BR FEW001
     FM301400 29006KT P6SM SCT200=



000
FTUS43 KEAX 292200 AAB
TAFSTJ
TAF AMD
KSTJ 292225Z 2922/3018 20006KT P6SM VCTS SCT040CB BKN060
     FM300300 VRB05KT P6SM SCT060
     FM301000 VRB02KT 4SM BR FEW001
     FM301400 29006KT P6SM SCT200=



000
FTUS43 KEAX 292200 AAB
TAFMCI
TAF AMD
KMCI 292224Z 2922/3018 21008KT P6SM VCTS SCT040CB BKN060
     FM300300 VRB05KT P6SM SCT060
     FM301000 VRB02KT 4SM BR FEW001
     FM301400 29006KT P6SM SCT200=



000
FTUS43 KEAX 291900 AAA
TAFSTJ
TAF AMD
KSTJ 291919Z 2919/3018 20009KT P6SM SCT040 BKN060
      TEMPO 2922/3001 3SM -TSRA BKN035CB
     FM300900 VRB02KT 1SM BR BKN008
     FM301300 29006KT P6SM SCT200=



000
FTUS43 KEAX 291900 AAA
TAFMCI
TAF AMD
KMCI 291918Z 2919/3018 21008KT P6SM SCT040 BKN060
      TEMPO 2922/3001 3SM -TSRA BKN035CB
     FM301000 VRB02KT 4SM BR FEW001
     FM301400 29006KT P6SM SCT200=



000
FTUS43 KEAX 291800 AAA
TAFMKC
TAF AMD
KMKC 291846Z 2919/3018 23007KT P6SM SCT040 BKN060
      TEMPO 2922/3001 3SM -TSRA BKN035CB
     FM301000 VRB02KT 4SM BR FEW001
     FM301400 29006KT P6SM SCT200=



000
FTUS43 KEAX 291700 CCA
TAFMCI
TAF COR
KMCI 291739Z 2918/3018 22010KT 6SM -SHRA BKN050
      TEMPO 2918/2920 3SM SHRA SCT025 OVC035
     FM292100 23005KT P6SM SCT040 BKN060
      TEMPO 2922/3001 3SM -TSRA BKN035CB
     FM301000 VRB02KT 4SM BR FEW001
     FM301400 29006KT P6SM SCT200=



000
FTUS43 KEAX 291700
TAFSTJ
TAF
KSTJ 291720Z 2918/3018 22010KT P6SM BKN050
      TEMPO 2919/2921 3SM SHRA OVC035
     FM292100 23005KT P6SM SCT040 BKN060
      TEMPO 2922/3001 3SM -TSRA BKN035CB
     FM300900 VRB02KT 1SM BR BKN008
     FM301300 29006KT P6SM SCT200=



000
FTUS43 KEAX 291700
TAFMKC
TAF
KMKC 291720Z 2918/3018 22010KT 6SM -SHRA BKN050
      TEMPO 2918/2920 3SM SHRA OVC035
     FM292100 23005KT P6SM SCT040 BKN060
      TEMPO 2922/3001 3SM -TSRA BKN035CB
     FM301000 VRB02KT 4SM BR FEW001
     FM301400 29006KT P6SM SCT200=



000
FTUS43 KEAX 291700
TAFMCI
TAF
KMCI 291720Z 2918/3018 22010KT 6SM -SHRA BKN050
      TEMPO 2918/2920 2SM SHRA SCT025 OVC035
     FM292100 23005KT P6SM SCT040 BKN060
      TEMPO 2922/3001 3SM -TSRA BKN035CB
     FM301000 VRB02KT 4SM BR FEW001
     FM301400 29006KT P6SM SCT200=



000
FTUS43 KEAX 291600 AAA
TAFMCI
TAF AMD
KMCI 291636Z 2917/3012 22010KT P6SM -SHRA BKN040
      TEMPO 2917/2921 3SM SHRA BKN035
     FM292100 22010KT 5SM -TSRA BKN050CB
     FM300200 23005KT P6SM BKN060
     FM301000 VRB02KT 4SM BR FEW001=



000
FTUS43 KEAX 291600 AAA
TAFMKC
TAF AMD
KMKC 291635Z 2917/3012 21010KT 5SM SHRA BKN040
      TEMPO 2917/2919 2SM +SHRA
     FM292100 22010KT 5SM -TSRA BKN050CB
     FM300200 23005KT P6SM BKN100=



000
FTUS43 KEAX 291100 CCA
TAFSTJ
TAF COR
KSTJ 291126Z 2912/3012 20009KT P6SM BKN080
     FM291500 21010KT P6SM VCTS BKN040CB
     FM292000 21010KT 5SM -TSRA BKN050CB
     FM300100 23005KT P6SM BKN060
     FM301000 00000KT 3SM BR SCT001=



000
FTUS43 KEAX 291100 CCA
TAFMCI
TAF COR
KMCI 291126Z 2912/3012 20010KT P6SM BKN080
     FM291400 21010KT P6SM VCTS BKN040CB
     FM292100 22010KT 5SM -TSRA BKN050CB
     FM300200 23005KT P6SM BKN060
     FM301000 VRB02KT 4SM BR FEW001=



000
FTUS43 KEAX 291100 CCA
TAFMKC
TAF COR
KMKC 291126Z 2912/3012 20009KT P6SM BKN080
     FM291400 21010KT P6SM VCTS BKN040CB
     FM292100 22010KT 5SM -TSRA BKN050CB
     FM300200 23005KT P6SM BKN100=



000
FTUS43 KEAX 291100
TAFMCI
TAF
KMCI 291120Z 2912/3012 20010KT P6SM BKN080
     FM292100 21010KT 5SM -TSRA BKN050CB
     FM300200 23005KT P6SM BKN060
     FM301000 VRB02KT 4SM BR FEW001=



000
FTUS43 KEAX 291100
TAFMKC
TAF
KMKC 291120Z 2912/3012 20009KT P6SM BKN080
     FM292100 21010KT 5SM -TSRA BKN050CB
     FM300200 23005KT P6SM BKN100=



000
FTUS43 KEAX 291100
TAFSTJ
TAF
KSTJ 291120Z 2912/3012 20009KT P6SM BKN080
     FM292000 21010KT 5SM -TSRA BKN050CB
     FM300100 23005KT P6SM BKN060
     FM301000 00000KT 3SM BR SCT001=



000
FTUS43 KEAX 290500
TAFSTJ
TAF
KSTJ 290520Z 2906/3006 00000KT P6SM SKC
     FM291500 17010KT P6SM VCTS SCT050CB BKN100
     FM292000 20010KT P6SM -TSRA BKN050CB
     FM300000 21008KT P6SM BKN100=



000
FTUS43 KEAX 290500
TAFMCI
TAF
KMCI 290520Z 2906/3006 17008KT P6SM SKC
     FM291200 17010KT P6SM SCT050 BKN100
     FM292100 20010KT P6SM -TSRA BKN050CB
     FM300200 21008KT P6SM BKN100=



000
FTUS43 KEAX 290500
TAFMKC
TAF
KMKC 290520Z 2906/3006 24004KT P6SM SKC
     FM291200 18010KT P6SM SCT050 BKN100
     FM292100 20010KT P6SM -TSRA BKN050CB
     FM300200 21008KT P6SM BKN100=



000
FTUS43 KEAX 282300
TAFMKC
TAF
KMKC 282322Z 2900/2924 19014KT P6SM SKC
     FM290200 16008KT P6SM SCT060 BKN120
     FM291100 18010KT P6SM VCTS SCT050CB BKN100
     FM292100 20010KT P6SM -TSRA BKN050CB=



000
FTUS43 KEAX 282300
TAFSTJ
TAF
KSTJ 282322Z 2900/2924 16008KT P6SM SKC
     FM290200 15008KT P6SM SCT060 BKN120
     FM291000 17010KT P6SM VCTS SCT050CB BKN100
     FM292100 20010KT P6SM -TSRA BKN050CB=



000
FTUS43 KEAX 282300
TAFMCI
TAF
KMCI 282322Z 2900/2924 15012KT P6SM FEW060 SCT200
     FM290200 15008KT P6SM SCT060 BKN120
     FM291100 17010KT P6SM VCTS SCT050CB BKN100
     FM292100 20010KT P6SM -TSRA BKN050CB=



000
FTUS43 KEAX 282100 AAA
TAFSTJ
TAF AMD
KSTJ 282106Z 2821/2918 16011KT P6SM SCT060 SCT180
     FM290200 15008KT P6SM SCT060 BKN120
     FM291000 17010KT P6SM VCTS SCT050CB BKN100=



000
FTUS43 KEAX 281700
TAFSTJ
TAF
KSTJ 281729Z 2818/2918 14008KT P6SM SCT060 SCT180
     FM290200 15008KT P6SM SCT060 BKN120
     FM291000 17010KT P6SM VCTS SCT050CB BKN100=



000
FTUS43 KEAX 281700
TAFMKC
TAF
KMKC 281729Z 2818/2918 20010KT P6SM SCT060 SCT180
     FM290200 16008KT P6SM SCT060 BKN120
     FM291100 18010KT P6SM VCTS SCT050CB BKN100=



000
FTUS43 KEAX 281700
TAFMCI
TAF
KMCI 281729Z 2818/2918 18010KT P6SM SCT060 SCT180
     FM290200 15008KT P6SM SCT060 BKN120
     FM291100 17010KT P6SM VCTS SCT050CB BKN100=



000
FTUS43 KEAX 281100
TAFMKC
TAF
KMKC 281120Z 2812/2912 12006KT P6SM BKN150
     FM281400 17008KT P6SM BKN150
     FM281800 17006KT P6SM BKN060
     FM290800 19007KT P6SM VCTS BKN060CB=



000
FTUS43 KEAX 281100
TAFMCI
TAF
KMCI 281120Z 2812/2912 14007KT P6SM VCSH SCT070 BKN150
     FM281400 16009KT P6SM BKN150
     FM281800 16010KT P6SM BKN060
     FM290800 16008KT P6SM VCTS BKN060CB=



000
FTUS43 KEAX 281100
TAFSTJ
TAF
KSTJ 281120Z 2812/2912 11006KT P6SM VCSH BKN070
     FM281400 VRB06KT P6SM BKN150
     FM281800 15006KT P6SM BKN060
     FM290800 19005KT P6SM VCTS BKN060CB=



000
FTUS43 KEAX 280900 AAA
TAFSTJ
TAF AMD
KSTJ 280915Z 2809/2906 11007KT P6SM VCSH BKN070
     FM281500 19011KT P6SM SCT050 BKN120=



000
FTUS43 KEAX 280500
TAFMKC
TAF
KMKC 280520Z 2806/2906 09008KT P6SM SKC
     FM281400 19011KT P6SM SCT050 BKN120=



000
FTUS43 KEAX 280500
TAFSTJ
TAF
KSTJ 280520Z 2806/2906 09007KT P6SM SKC
     FM280800 11007KT P6SM VCTS SCT030CB BKN060
      TEMPO 2810/2813 4SM -TSRA BKN030CB OVC050
     FM281500 19011KT P6SM SCT050 BKN120=



000
FTUS43 KEAX 280500
TAFMCI
TAF
KMCI 280520Z 2806/2906 09007KT P6SM OVC150
     FM281400 19011KT P6SM SCT050 BKN120=



000
FTUS43 KEAX 272300
TAFMCI
TAF
KMCI 272320Z 2800/2824 10010KT P6SM SCT150 BKN200
     FM280300 07008KT P6SM VCTS BKN040CB OVC080
     FM281400 19011KT P6SM SCT050 BKN130=



000
FTUS43 KEAX 272300
TAFSTJ
TAF
KSTJ 272320Z 2800/2824 12005KT P6SM SKC
     FM280200 07008KT P6SM VCTS BKN040CB OVC080
      TEMPO 2805/2809 4SM -TSRA BKN030CB OVC050
     FM281500 19011KT P6SM SCT050 BKN130=



000
FTUS43 KEAX 272300
TAFMKC
TAF
KMKC 272320Z 2800/2824 07011KT P6SM SKC
     FM280300 07008KT P6SM VCTS BKN040CB OVC080
     FM281400 19011KT P6SM SCT050 BKN130=



000
FTUS43 KEAX 271700
TAFSTJ
TAF
KSTJ 271720Z 2718/2818 07008KT P6SM SCT080 BKN150
     FM280200 07008KT P6SM VCTS BKN040CB OVC080
      TEMPO 2805/2809 4SM -TSRA BKN030CB OVC050
     FM281500 19011KT P6SM SCT050 BKN130=



000
FTUS43 KEAX 271700
TAFMKC
TAF
KMKC 271720Z 2718/2818 09010KT P6SM SCT080 BKN250
     FM280300 07008KT P6SM VCTS BKN040CB OVC080
     FM281400 19011KT P6SM SCT050 BKN130=



000
FTUS43 KEAX 271700
TAFMCI
TAF
KMCI 271720Z 2718/2818 09009KT P6SM SCT080 BKN250
     FM280300 07008KT P6SM VCTS BKN040CB OVC080
     FM281400 19011KT P6SM SCT050 BKN130=



000
FTUS43 KEAX 271600 AAB
TAFSTJ
TAF AMD
KSTJ 271604Z 2716/2812 01009KT P6SM -SHRA SCT040 OVC100
     FM271800 VRB06KT P6SM FEW025 SCT080=



000
FTUS43 KEAX 271300 AAA
TAFSTJ
TAF AMD
KSTJ 271349Z 2714/2812 12012KT P6SM VCTS BKN040CB
      TEMPO 2714/2716 VRB15G25KT 4SM -TSRA BR BKN025CB
     FM271600 VRB06KT P6SM FEW025 SCT080=



    US Dept of Commerce
    National Oceanic and Atmospheric Administration
    National Weather Service
    1325 East West Highway
    Silver Spring, MD 20910
    Page Author: NWS Internet Services Team
Disclaimer
Information Quality
Credits
Glossary
Privacy Policy
Freedom of Information Act (FOIA)
About Us
Career Opportunities